»·PEaware :: SWA2579 KOAK-KBLI

SWA2579 :: KOAK-KBLI

FLIGHT INFORMATION

Flight Status: Arrived
Operator:
Southwest Airlines
More flights by this operator :: More flights under this callsign
Pilot: Preston K. (37326)
Aircraft: BOEING 737-800
(B738)
More flights by this aircraft type
Origin: KOAK Metro Oakland Intl
United States
Destination: KBLI Bellingham Intl
United States
More flights between these airports :: More routes between these airports
Route: HUSSH2 GRTFL OED J1 SEA PAE MADEE4
File this flight plan on PilotEdge
Remarks: RMK / SIMBRIEF
Altitude:
(Current/Filed)
34,000ft
Speed:
(Current/Filed)
469kts
Departed: 02-Nov-22 04:28 PM
Arrived: 02-Nov-22 06:35 PM
Distance/Time
Traveled:
665nm/2:07
Distance/Time
To Go:
Arrived

Flight Plot

Page will automatically refresh every two minutes.

Flight plan parsing failed; only flown route is shown


Map Options




Map Legend


Flown Route
Filed Route
Departure Airport
Arrival Airport
Navaid (VOR, NDB)
Fix

Horizontal Profiles

Position Reports

Time Latitude Longitude Heading Altitude Ground
Speed
02-Nov-22 16:01 37.710042 -122.212647 0 14ft 0kts
02-Nov-22 16:06 37.710042 -122.212647 150 14ft 0kts
02-Nov-22 16:07 37.710042 -122.212647 150 14ft 0kts
02-Nov-22 16:08 37.710042 -122.212647 150 14ft 0kts
02-Nov-22 16:09 37.710042 -122.212647 150 14ft 0kts
02-Nov-22 16:10 37.710042 -122.212647 150 14ft 0kts
02-Nov-22 16:11 37.710042 -122.212647 150 14ft 0kts
02-Nov-22 16:12 37.710042 -122.212647 150 14ft 0kts
02-Nov-22 16:13 37.710042 -122.212647 150 14ft 0kts
02-Nov-22 16:14 37.710042 -122.212647 150 14ft 0kts
02-Nov-22 16:15 37.710042 -122.212647 150 14ft 0kts
02-Nov-22 16:16 37.710042 -122.212647 150 14ft 0kts
02-Nov-22 16:17 37.710043 -122.212648 150 14ft 1kts
02-Nov-22 16:18 37.710622 -122.213040 157 16ft 2kts
02-Nov-22 16:19 37.710813 -122.213110 167 16ft 0kts
02-Nov-22 16:20 37.710813 -122.213110 167 16ft 0kts
02-Nov-22 16:21 37.710813 -122.213110 167 16ft 0kts
02-Nov-22 16:22 37.710813 -122.213110 167 16ft 0kts
02-Nov-22 16:23 37.710365 -122.213616 208 14ft 5kts
02-Nov-22 16:24 37.708405 -122.216217 228 14ft 13kts
02-Nov-22 16:25 37.705600 -122.216663 130 14ft 12kts
02-Nov-22 16:26 37.703408 -122.213914 158 14ft 9kts
02-Nov-22 16:27 37.702707 -122.216137 310 15ft 54kts
02-Nov-22 16:28 37.724950 -122.258434 289 2301ft 184kts
02-Nov-22 16:29 37.747154 -122.329698 301 3995ft 248kts
02-Nov-22 16:30 37.809203 -122.368569 336 7477ft 257kts
02-Nov-22 16:31 37.880818 -122.385997 358 10510ft 283kts
02-Nov-22 16:32 37.971365 -122.373884 12 11414ft 368kts
02-Nov-22 16:33 38.071803 -122.335346 12 14136ft 382kts
02-Nov-22 16:34 38.175037 -122.296905 12 16651ft 391kts
02-Nov-22 16:35 38.280636 -122.257626 11 18968ft 401kts
02-Nov-22 16:36 38.388797 -122.235854 349 21103ft 393kts
02-Nov-22 16:37 38.497988 -122.253674 349 23053ft 397kts
02-Nov-22 16:38 38.608543 -122.270965 350 24535ft 403kts
02-Nov-22 16:39 38.720561 -122.288520 350 25770ft 410kts
02-Nov-22 16:40 38.835030 -122.306501 350 26978ft 413kts
02-Nov-22 16:41 38.947937 -122.324299 351 28663ft 407kts
02-Nov-22 16:42 39.059549 -122.341941 351 30373ft 401kts
02-Nov-22 16:43 39.170136 -122.359495 351 31595ft 400kts
02-Nov-22 16:44 39.280718 -122.377108 351 32681ft 400kts
02-Nov-22 16:45 39.391134 -122.394740 351 33663ft 401kts
02-Nov-22 16:46 39.502088 -122.412524 351 34094ft 402kts
02-Nov-22 16:47 39.612702 -122.430318 352 34097ft 401kts
02-Nov-22 16:48 39.722848 -122.448094 352 34102ft 398kts
02-Nov-22 16:49 39.832889 -122.465908 352 34095ft 397kts
02-Nov-22 16:50 39.942314 -122.483685 352 34089ft 396kts
02-Nov-22 16:51 40.051191 -122.501427 352 34090ft 393kts
02-Nov-22 16:52 40.159922 -122.519213 352 34089ft 393kts
02-Nov-22 16:53 40.268293 -122.537100 352 34097ft 391kts
02-Nov-22 16:54 40.376209 -122.554876 352 34083ft 390kts
02-Nov-22 16:55 40.483534 -122.572588 352 34075ft 389kts
02-Nov-22 16:56 40.591180 -122.590417 352 34122ft 389kts
02-Nov-22 16:57 40.698529 -122.608251 352 34077ft 388kts
02-Nov-22 16:58 40.805683 -122.626108 352 34054ft 388kts
02-Nov-22 16:59 40.912636 -122.643992 352 34024ft 387kts
02-Nov-22 17:00 41.019098 -122.661855 353 34091ft 384kts
02-Nov-22 17:01 41.125224 -122.679711 352 34062ft 387kts
02-Nov-22 17:02 41.232903 -122.697898 352 34089ft 395kts
02-Nov-22 17:03 41.341604 -122.716306 352 34100ft 388kts
02-Nov-22 17:04 41.448902 -122.734547 352 34089ft 389kts
02-Nov-22 17:05 41.555365 -122.752711 353 34090ft 379kts
02-Nov-22 17:06 41.658802 -122.770414 353 34114ft 373kts
02-Nov-22 17:07 41.761846 -122.788092 353 34117ft 374kts
02-Nov-22 17:08 41.864626 -122.805798 353 34136ft 371kts
02-Nov-22 17:09 41.967180 -122.823509 353 34123ft 370kts
02-Nov-22 17:10 42.068952 -122.841159 353 34175ft 369kts
02-Nov-22 17:11 42.170270 -122.858778 353 34177ft 364kts
02-Nov-22 17:12 42.270953 -122.876338 353 34145ft 364kts
02-Nov-22 17:13 42.370516 -122.893771 353 34138ft 360kts
02-Nov-22 17:14 42.469663 -122.910789 356 34116ft 358kts
02-Nov-22 17:15 42.569430 -122.904828 2 34143ft 359kts
02-Nov-22 17:16 42.669145 -122.895550 2 34158ft 359kts
02-Nov-22 17:17 42.768515 -122.886296 2 34151ft 357kts
02-Nov-22 17:18 42.867493 -122.876994 2 34152ft 356kts
02-Nov-22 17:19 42.966642 -122.867638 2 34157ft 356kts
02-Nov-22 17:20 43.065219 -122.858306 2 34167ft 356kts
02-Nov-22 17:21 43.163876 -122.848931 2 34180ft 357kts
02-Nov-22 17:22 43.262435 -122.839536 2 34248ft 353kts
02-Nov-22 17:23 43.361166 -122.830114 2 34165ft 356kts
02-Nov-22 17:24 43.460169 -122.820601 2 34166ft 352kts
02-Nov-22 17:25 43.558359 -122.811156 2 34103ft 353kts
02-Nov-22 17:26 43.656356 -122.801702 2 34148ft 353kts
02-Nov-22 17:27 43.753909 -122.792200 2 34151ft 352kts
02-Nov-22 17:28 43.851186 -122.782775 2 34160ft 350kts
02-Nov-22 17:29 43.948620 -122.773288 2 34160ft 350kts
02-Nov-22 17:30 44.045342 -122.763828 2 34185ft 350kts
02-Nov-22 17:31 44.142138 -122.754321 2 34170ft 349kts
02-Nov-22 17:32 44.239096 -122.744774 2 34181ft 348kts
02-Nov-22 17:33 44.335885 -122.735217 2 34165ft 348kts
02-Nov-22 17:34 44.431951 -122.725695 2 34140ft 346kts
02-Nov-22 17:35 44.528074 -122.716135 2 34154ft 345kts
02-Nov-22 17:36 44.623692 -122.706600 2 34162ft 343kts
02-Nov-22 17:37 44.719221 -122.697046 2 34144ft 344kts
02-Nov-22 17:38 44.814814 -122.687438 2 34158ft 344kts
02-Nov-22 17:39 44.910286 -122.677815 2 34153ft 344kts
02-Nov-22 17:40 45.005796 -122.668166 2 34147ft 344kts
02-Nov-22 17:41 45.101229 -122.658480 2 34151ft 344kts
02-Nov-22 17:42 45.196513 -122.648780 2 34143ft 343kts
02-Nov-22 17:43 45.291655 -122.639064 2 34140ft 342kts
02-Nov-22 17:44 45.386736 -122.629326 2 34151ft 343kts
02-Nov-22 17:45 45.481838 -122.619546 2 34142ft 343kts
02-Nov-22 17:46 45.576924 -122.609737 2 34152ft 344kts
02-Nov-22 17:47 45.672069 -122.599884 2 34156ft 342kts
02-Nov-22 17:48 45.767307 -122.589448 3 34142ft 343kts
02-Nov-22 17:49 45.861832 -122.573691 4 34135ft 344kts
02-Nov-22 17:50 45.957224 -122.557910 4 34158ft 343kts
02-Nov-22 17:51 46.052344 -122.542287 3 34153ft 343kts
02-Nov-22 17:52 46.147159 -122.526680 3 34176ft 344kts
02-Nov-22 17:53 46.242623 -122.510901 3 34149ft 344kts
02-Nov-22 17:54 46.338037 -122.495090 3 34097ft 344kts
02-Nov-22 17:55 46.433447 -122.479220 3 34122ft 345kts
02-Nov-22 17:56 46.529045 -122.463266 3 34123ft 346kts
02-Nov-22 17:57 46.624648 -122.447244 3 34153ft 343kts
02-Nov-22 17:58 46.720461 -122.431145 3 34134ft 347kts
02-Nov-22 18:00 46.815977 -122.415020 3 34106ft 344kts
02-Nov-22 18:01 46.911343 -122.398997 3 34149ft 346kts
02-Nov-22 18:02 47.006870 -122.382905 3 34189ft 349kts
02-Nov-22 18:03 47.104259 -122.366428 3 34156ft 353kts
02-Nov-22 18:04 47.201688 -122.349879 3 34162ft 352kts
02-Nov-22 18:05 47.299178 -122.333257 3 34143ft 349kts
02-Nov-22 18:06 47.394290 -122.316966 3 33235ft 335kts
02-Nov-22 18:07 47.485326 -122.306450 359 30970ft 324kts
02-Nov-22 18:08 47.573454 -122.300875 0 28743ft 311kts
02-Nov-22 18:09 47.663444 -122.295043 0 26597ft 332kts
02-Nov-22 18:10 47.754080 -122.289020 1 24495ft 320kts
02-Nov-22 18:11 47.842681 -122.283147 1 22254ft 324kts
02-Nov-22 18:12 47.938483 -122.282021 349 19815ft 355kts
02-Nov-22 18:13 48.038431 -122.312155 348 17078ft 364kts
02-Nov-22 18:14 48.136901 -122.340655 348 15009ft 355kts
02-Nov-22 18:15 48.233031 -122.368616 348 13016ft 347kts
02-Nov-22 18:16 48.322810 -122.394849 348 11374ft 307kts
02-Nov-22 18:17 48.401997 -122.418066 348 10040ft 277kts
02-Nov-22 18:18 48.478055 -122.440446 349 8648ft 279kts
02-Nov-22 18:19 48.553115 -122.462589 349 7587ft 270kts
02-Nov-22 18:20 48.626112 -122.484184 349 6667ft 265kts
02-Nov-22 18:21 48.695252 -122.517901 354 5668ft 261kts
02-Nov-22 18:21 48.754919 -122.525667 357 5005ft 248kts
02-Nov-22 18:23 48.828333 -122.532441 357 4982ft 214kts
02-Nov-22 18:24 48.888690 -122.538011 357 4324ft 215kts
02-Nov-22 18:25 48.948513 -122.541439 1 3700ft 214kts
02-Nov-22 18:26 49.001655 -122.516741 56 3202ft 209kts
02-Nov-22 18:26 49.025464 -122.451697 59 3202ft 212kts
02-Nov-22 18:27 49.067761 -122.455534 275 3203ft 218kts
02-Nov-22 18:29 49.020082 -122.530035 210 3201ft 220kts
02-Nov-22 18:30 48.961889 -122.538236 178 3202ft 209kts
02-Nov-22 18:31 48.905183 -122.537977 179 2291ft 182kts
02-Nov-22 18:31 48.868174 -122.537825 180 1531ft 146kts
02-Nov-22 18:32 48.827749 -122.537748 180 700ft 141kts
02-Nov-22 18:33 48.790739 -122.537497 180 175ft 55kts
02-Nov-22 18:34 48.783700 -122.537334 131 177ft 12kts
02-Nov-22 18:35 48.785449 -122.535813 359 178ft 12kts
02-Nov-22 18:36 48.789887 -122.535839 0 176ft 20kts
02-Nov-22 18:37 48.794630 -122.534470 54 174ft 9kts
02-Nov-22 18:38 48.795267 -122.533937 47 174ft 0kts
02-Nov-22 18:39 48.795267 -122.533937 47 174ft 0kts
02-Nov-22 18:40 48.795267 -122.533937 47 174ft 0kts

Navigation Log

Ident Type
Flight plan parsing failed, navigation log unavailable